CA-0643 weather

CLOSED Bowden Airport
Innisfail, Alberta, Canada

Public forecast

Using degrees Celsius for public forecast. Weather courtesy of forecast.io.

Closest aviation weather report (METAR) to Bowden Airport

Closest report is Red Deer Regional Airport, 12.7 nm (23.5 km) NNE. Retrieved 2020/07/07 23:23 UTC (6 minutes ago):

CYQF 072323Z 29007KT 6SM -SHRA BR FEW008 BKN045CB OVC080 16/15 A2974 RMK SF2CB3AC3 SLP081 DENSITY ALT 4000FT

Closest aviation forecast (TAF) to Bowden Airport

Closest forecast is Red Deer Regional Airport, 12.7 nm (23.5 km) NNE. Retrieved 2020/07/07 18:54 UTC (5 hours ago):

TAF CYQF 071752Z 0718/0806 03010KT P6SM SCT070 BKN240 TEMPO 0718/0720 P6SM -SHRA OVC070CB FM072000 09010KT P6SM -SHRA OVC070 TEMPO 0720/0802 VRB20G30KT 4SM TSRA BKN020 OVC050CB FM080200 33015G25KT P6SM -SHRA SCT008 OVC025 TEMPO 0802/0806 2SM SHRA BR OVC008 RMK NXT FCST BY 080000Z